Registration

All data are given in time UTC except for the places where it is expressly stated to the contrary, The data provided on this website are informative!!!


Actual Weather
 
Weather - Poland
7°C Szczecin 8°C Suwałki 9°C Warszawa 11°C Poznan
13°C Opole 9°C Kraków 6°C Rzeszów
More cities in Poland

Weather - Europe
8°C Berlin 4°C Paryz 4°C Bruksela 3°C Oslo
13°C Praga 12°C Zagrzeb
More cities in Europe

METAR EPCE 172200Z 14011KT 5000 BR OVC006 09/08 Q1013 RMK 086 094 8/8=
METAR EPDA 172200Z 10013KT 9999 FEW251 08/06 Q1011 RMK 077 092 1/1=
METAR EPDE 172200Z 09006KT 3500 BR SCT009 06/05 Q1016 RMK 055 098 4/4=
METAR EPIR 172200Z 11016KT 9999 NSC 07/06 Q1013 RMK 078 089 3/3=
METAR EPKS 172200Z 10012KT 9999 NSC 08/08 Q1010 RMK 083 100 3/3=
METAR EPLK 172200Z 08007KT 9999 NSC 08/07 Q1012 RMK 080 092 7/3=
METAR EPLY 172200Z 09008KT 9999 NSC 08/07 Q1013 RMK 081 093 6/6=
METAR EPMB 172200Z 14012KT 9999 OVC011 08/08 Q1015 RMK 084 096 8/8=
METAR EPMI 172200Z 12011KT 6000 FEW200 08/07 Q1010 RMK 080 095 2/2=
METAR EPMM 172200Z 14009KT 100V160 7000 BKN006 08/07 Q1016 RMK 083 093 7/7=
METAR EPOK 172200Z 13015KT 6000 OVC005 09/08 Q1015 RMK 090 092 8/8=
METAR EPPR 172200Z 08006KT 6000 SCT009 08/08 Q1015 RMK 080 097 4/4=
METAR EPPW 172200Z 11012KT 9999 NSC 08/07 Q1011 RMK 084 092 4/4=
METAR EPSN 172200Z 10014KT 9000 NSC 09/07 Q1010 RMK 091 089 0/0=
METAR EPTM 172200Z 09010KT 9999 SCT008 BKN200 08/07 Q1014 RMK 083 091 7/3=


 

Copyright©2007 HS-PAF All rights reserved.